createdAt,value
2023-03-21T00:01:55.827Z,9.13
2023-03-21T00:04:25.653Z,9.12
2023-03-21T00:06:54.734Z,9.11
2023-03-21T00:09:23.514Z,9.08
2023-03-21T00:11:52.473Z,9.09
2023-03-21T00:14:23.823Z,9.09
2023-03-21T00:16:53.333Z,9.09
2023-03-21T00:19:26.720Z,9.07
2023-03-21T00:22:07.128Z,9.03
2023-03-21T00:24:37.516Z,9.00
2023-03-21T00:27:42.865Z,8.98
2023-03-21T00:29:57.095Z,8.94
2023-03-21T00:32:25.588Z,8.94
2023-03-21T00:35:23.335Z,8.92
2023-03-21T00:37:46.841Z,8.89
2023-03-21T00:40:25.680Z,8.89
2023-03-21T00:42:56.281Z,8.90
2023-03-21T00:45:24.970Z,8.89
2023-03-21T00:47:53.976Z,8.90
2023-03-21T00:50:25.041Z,8.90
2023-03-21T00:52:53.776Z,8.91
2023-03-21T00:55:22.520Z,8.90
2023-03-21T00:58:01.283Z,8.90
2023-03-21T01:00:30.993Z,8.88
2023-03-21T01:03:21.384Z,8.85
2023-03-21T01:06:07.592Z,8.84
2023-03-21T01:08:52.291Z,8.81
2023-03-21T01:11:23.217Z,8.80
2023-03-21T01:13:56.276Z,8.80
2023-03-21T01:16:31.273Z,8.77
2023-03-21T01:19:02.146Z,8.76
2023-03-21T01:21:34.730Z,8.74
2023-03-21T01:24:03.337Z,8.73
2023-03-21T01:26:31.766Z,8.72
2023-03-21T01:29:00.373Z,8.68
2023-03-21T01:31:29.197Z,8.62
2023-03-21T01:33:58.124Z,8.60
2023-03-21T01:36:27.774Z,8.58
2023-03-21T01:39:07.461Z,8.56
2023-03-21T01:41:43.018Z,8.52
2023-03-21T01:44:20.533Z,8.46
2023-03-21T01:47:12.526Z,8.47
2023-03-21T01:49:50.963Z,8.44
2023-03-21T01:52:43.000Z,8.42
2023-03-21T01:55:19.510Z,8.42
2023-03-21T01:58:12.895Z,8.44
2023-03-21T02:01:11.837Z,8.43
2023-03-21T02:03:52.146Z,8.44
2023-03-21T02:06:37.730Z,8.48
2023-03-21T02:09:17.704Z,8.46
2023-03-21T02:11:48.137Z,8.47
2023-03-21T02:14:28.928Z,8.44
2023-03-21T02:17:23.581Z,8.45
2023-03-21T02:20:26.988Z,8.44
2023-03-21T02:23:15.658Z,8.44
2023-03-21T02:26:41.126Z,8.43
2023-03-21T02:29:33.998Z,8.41
2023-03-21T02:32:22.637Z,8.40
2023-03-21T02:35:14.914Z,8.42
2023-03-21T02:37:58.602Z,8.42
2023-03-21T02:40:35.653Z,8.39
2023-03-21T02:43:20.851Z,8.38
2023-03-21T02:45:58.556Z,8.35
2023-03-21T02:48:48.186Z,8.36
2023-03-21T02:51:22.741Z,8.36
2023-03-21T02:54:24.542Z,8.32
2023-03-21T02:56:47.367Z,8.30
2023-03-21T02:59:17.165Z,8.28
2023-03-21T03:01:46.174Z,8.25
2023-03-21T03:04:22.223Z,8.28
2023-03-21T03:07:13.218Z,8.25
2023-03-21T03:09:59.424Z,8.19
2023-03-21T03:12:40.300Z,8.17
2023-03-21T03:15:22.105Z,8.21
2023-03-21T03:17:55.679Z,8.18
2023-03-21T03:20:31.829Z,8.17
2023-03-21T03:23:09.026Z,8.16
2023-03-21T03:25:44.187Z,8.16
2023-03-21T03:28:19.682Z,8.16
2023-03-21T03:31:07.393Z,8.16
2023-03-21T03:33:49.928Z,8.14
2023-03-21T03:36:31.601Z,8.12
2023-03-21T03:39:06.852Z,8.11
2023-03-21T03:42:05.855Z,8.09
2023-03-21T03:44:38.263Z,8.07
2023-03-21T03:47:17.519Z,8.03
2023-03-21T03:49:53.832Z,8.00
2023-03-21T03:52:26.281Z,7.98
2023-03-21T03:55:04.309Z,7.96
2023-03-21T03:57:39.357Z,7.95
2023-03-21T04:00:12.018Z,7.96
2023-03-21T04:02:47.181Z,7.92
2023-03-21T04:05:21.567Z,7.92
2023-03-21T04:07:51.475Z,7.91
2023-03-21T04:10:26.832Z,7.88
2023-03-21T04:12:57.102Z,7.91
2023-03-21T04:15:31.824Z,7.91
2023-03-21T04:18:07.803Z,7.90
2023-03-21T04:20:37.585Z,7.88
2023-03-21T04:23:09.125Z,7.88
2023-03-21T04:25:47.610Z,7.87
2023-03-21T04:28:24.308Z,7.87
2023-03-21T04:31:05.160Z,7.89
2023-03-21T04:33:48.013Z,7.90
2023-03-21T04:36:26.754Z,7.89
2023-03-21T04:39:01.062Z,7.89
2023-03-21T04:41:31.000Z,7.89
2023-03-21T04:44:01.810Z,7.91
2023-03-21T04:46:30.550Z,7.93
2023-03-21T04:48:59.431Z,7.94
2023-03-21T04:51:28.210Z,7.93
2023-03-21T04:53:58.864Z,7.95
2023-03-21T04:56:32.896Z,7.95
2023-03-21T04:59:07.462Z,7.94
2023-03-21T05:01:36.624Z,7.95
2023-03-21T05:04:06.189Z,7.97
2023-03-21T05:06:37.219Z,7.98
2023-03-21T05:09:07.176Z,7.99
2023-03-21T05:11:39.044Z,7.99
2023-03-21T05:14:12.529Z,8.00
2023-03-21T05:16:48.787Z,8.01
2023-03-21T05:19:19.296Z,8.05
2023-03-21T05:21:50.610Z,8.05
2023-03-21T05:24:23.647Z,8.08
2023-03-21T05:26:56.394Z,8.10
2023-03-21T05:29:31.826Z,8.11
2023-03-21T05:32:04.213Z,8.15
2023-03-21T05:34:33.404Z,8.16
2023-03-21T05:37:03.616Z,8.18
2023-03-21T05:39:47.500Z,8.19
2023-03-21T05:42:23.839Z,8.21
2023-03-21T05:44:53.931Z,8.24
2023-03-21T05:47:28.204Z,8.27
2023-03-21T05:49:59.221Z,8.26
2023-03-21T05:52:29.857Z,8.27
2023-03-21T05:54:59.955Z,8.29
2023-03-21T05:57:30.099Z,8.32
2023-03-21T06:00:03.428Z,8.34
2023-03-21T06:02:44.166Z,8.35
2023-03-21T06:05:39.453Z,8.37
2023-03-21T06:08:14.531Z,8.39
2023-03-21T06:10:47.007Z,8.41
2023-03-21T06:13:16.004Z,8.44
2023-03-21T06:15:46.846Z,8.45
2023-03-21T06:18:20.612Z,8.45
2023-03-21T06:20:57.912Z,8.48
2023-03-21T06:23:27.249Z,8.49
2023-03-21T06:25:56.646Z,8.50
2023-03-21T06:28:27.453Z,8.54
2023-03-21T06:30:57.572Z,8.58
2023-03-21T06:33:28.711Z,8.62
2023-03-21T06:35:59.316Z,8.63
2023-03-21T06:38:28.462Z,8.66
2023-03-21T06:40:57.198Z,8.70
2023-03-21T06:43:27.098Z,8.72
2023-03-21T06:45:57.945Z,8.76
2023-03-21T06:48:27.893Z,8.81
2023-03-21T06:50:57.646Z,8.81
2023-03-21T06:53:28.798Z,8.86
2023-03-21T06:56:17.809Z,8.87
2023-03-21T06:58:48.057Z,8.89
2023-03-21T07:01:41.048Z,8.90
2023-03-21T07:04:11.134Z,8.92
2023-03-21T07:06:41.397Z,8.98
2023-03-21T07:09:10.193Z,9.02
2023-03-21T07:11:39.689Z,9.02
2023-03-21T07:14:08.209Z,9.01
2023-03-21T07:16:37.037Z,9.03
2023-03-21T07:19:07.380Z,9.07
2023-03-21T07:21:36.198Z,9.18
2023-03-21T07:24:05.844Z,9.25
2023-03-21T07:26:34.550Z,9.28
2023-03-21T07:29:05.172Z,9.24
2023-03-21T07:31:34.227Z,9.20
2023-03-21T07:34:03.912Z,9.13
2023-03-21T07:36:34.180Z,9.09
2023-03-21T07:39:02.782Z,9.03
2023-03-21T07:41:31.548Z,8.97
2023-03-21T07:44:12.822Z,8.95
2023-03-21T07:46:41.500Z,8.94
2023-03-21T07:49:10.314Z,8.97
2023-03-21T07:51:40.839Z,8.99
2023-03-21T07:54:09.754Z,9.02
2023-03-21T07:56:38.589Z,9.07
2023-03-21T07:59:08.413Z,9.08
2023-03-21T08:01:37.616Z,9.08
2023-03-21T08:04:07.537Z,9.12
2023-03-21T08:06:36.479Z,9.17
2023-03-21T08:09:07.142Z,9.20
2023-03-21T08:11:36.287Z,9.23
2023-03-21T08:14:05.071Z,9.28
2023-03-21T08:16:33.525Z,9.35
2023-03-21T08:19:02.158Z,9.31
2023-03-21T08:21:30.823Z,9.28
2023-03-21T08:23:59.656Z,9.24
2023-03-21T08:26:32.299Z,9.21
2023-03-21T08:29:00.993Z,9.17
2023-03-21T08:31:29.773Z,9.11
2023-03-21T08:33:58.341Z,9.12
2023-03-21T08:36:27.039Z,9.17
2023-03-21T08:39:04.573Z,9.21
2023-03-21T08:41:35.863Z,9.25
2023-03-21T08:44:05.961Z,9.29
2023-03-21T08:46:35.103Z,9.32
2023-03-21T08:49:03.907Z,9.39
2023-03-21T08:51:33.936Z,9.45
2023-03-21T08:54:03.247Z,9.54
2023-03-21T08:56:32.042Z,9.64
2023-03-21T08:59:03.049Z,9.74
2023-03-21T09:01:32.750Z,9.82
2023-03-21T09:04:01.360Z,9.87
2023-03-21T09:06:30.814Z,9.92
2023-03-21T09:08:59.954Z,10.00
2023-03-21T09:11:29.286Z,9.99
2023-03-21T09:13:57.695Z,9.98
2023-03-21T09:16:27.859Z,10.01
2023-03-21T09:18:59.254Z,10.08
2023-03-21T09:21:29.044Z,10.11
2023-03-21T09:24:00.065Z,10.17
2023-03-21T09:26:29.086Z,10.17
2023-03-21T09:28:58.897Z,10.22
2023-03-21T09:31:29.556Z,10.33
2023-03-21T09:33:58.333Z,10.37
2023-03-21T09:36:27.509Z,10.35
2023-03-21T09:38:57.145Z,10.30
2023-03-21T09:41:38.460Z,10.40
2023-03-21T09:44:20.292Z,10.47
2023-03-21T09:46:55.150Z,10.46
2023-03-21T09:49:31.341Z,10.40
2023-03-21T09:52:03.770Z,10.35
2023-03-21T09:54:37.115Z,10.31
2023-03-21T09:57:19.809Z,10.26
2023-03-21T09:59:53.772Z,10.23
2023-03-21T10:02:36.175Z,10.21
2023-03-21T10:05:10.356Z,10.14
2023-03-21T10:07:44.809Z,10.11
2023-03-21T10:10:18.748Z,10.09
2023-03-21T10:12:49.105Z,10.10
2023-03-21T10:15:20.456Z,10.10
2023-03-21T10:17:56.047Z,10.10
2023-03-21T10:20:26.619Z,10.09
2023-03-21T10:22:57.727Z,10.09
2023-03-21T10:25:32.976Z,10.11
2023-03-21T10:28:02.812Z,10.14
2023-03-21T10:30:38.382Z,10.14
2023-03-21T10:33:14.273Z,10.16
2023-03-21T10:35:46.752Z,10.18
2023-03-21T10:38:18.929Z,10.21
2023-03-21T10:40:47.725Z,10.23
2023-03-21T10:43:38.640Z,10.32
2023-03-21T10:46:09.848Z,10.41
2023-03-21T10:48:46.441Z,10.50
2023-03-21T10:51:20.384Z,10.62
2023-03-21T10:53:53.345Z,10.68
2023-03-21T10:56:27.837Z,10.72
2023-03-21T10:59:00.158Z,10.76
2023-03-21T11:01:33.636Z,10.74
2023-03-21T11:04:10.188Z,10.72
2023-03-21T11:06:42.739Z,10.76
2023-03-21T11:09:16.800Z,10.74
2023-03-21T11:11:52.732Z,10.77
2023-03-21T11:14:37.947Z,10.71
2023-03-21T11:17:21.862Z,10.73
2023-03-21T11:19:53.665Z,10.68
2023-03-21T11:22:25.055Z,10.62
2023-03-21T11:24:55.879Z,10.56
2023-03-21T11:27:29.504Z,10.51
2023-03-21T11:30:00.062Z,10.50
2023-03-21T11:32:34.404Z,10.53
2023-03-21T11:35:08.054Z,10.56
2023-03-21T11:37:46.364Z,10.57
2023-03-21T11:40:23.439Z,10.63
2023-03-21T11:42:53.978Z,10.66
2023-03-21T11:45:24.920Z,10.71
2023-03-21T11:47:57.121Z,10.69
2023-03-21T11:50:34.379Z,10.63
2023-03-21T11:53:18.338Z,10.64
2023-03-21T11:55:58.615Z,10.69
2023-03-21T11:58:37.629Z,10.68
2023-03-21T12:01:14.371Z,10.64
2023-03-21T12:04:04.249Z,10.69
2023-03-21T12:06:38.660Z,10.74
2023-03-21T12:09:31.180Z,10.75
2023-03-21T12:12:11.006Z,10.65
2023-03-21T12:14:49.011Z,10.51
2023-03-21T12:17:33.153Z,10.42
2023-03-21T12:20:15.207Z,10.31
2023-03-21T12:23:00.415Z,10.24
2023-03-21T12:25:34.177Z,10.22
2023-03-21T12:28:19.096Z,10.21
2023-03-21T12:31:06.789Z,10.22
2023-03-21T12:33:49.933Z,10.22
2023-03-21T12:36:32.365Z,10.18
2023-03-21T12:39:13.721Z,10.13
2023-03-21T12:41:46.390Z,10.12
2023-03-21T12:44:18.354Z,10.07
2023-03-21T12:46:48.886Z,10.01
2023-03-21T12:49:23.773Z,9.98
2023-03-21T12:51:57.013Z,10.00
2023-03-21T12:54:31.767Z,10.00
2023-03-21T12:57:06.072Z,10.05
2023-03-21T12:59:40.461Z,10.09
2023-03-21T13:02:19.791Z,10.09
2023-03-21T13:05:01.472Z,10.17
2023-03-21T13:07:35.022Z,10.24
2023-03-21T13:10:15.145Z,10.24
2023-03-21T13:12:50.811Z,10.27
2023-03-21T13:15:36.595Z,10.29
2023-03-21T13:18:17.839Z,10.33
2023-03-21T13:20:50.811Z,10.34
2023-03-21T13:23:20.671Z,10.38
2023-03-21T13:25:53.881Z,10.34
2023-03-21T13:28:27.059Z,10.47
2023-03-21T13:31:20.092Z,10.58
2023-03-21T13:33:51.402Z,10.63
2023-03-21T13:36:26.064Z,10.66
2023-03-21T13:39:00.713Z,10.63
2023-03-21T13:41:34.350Z,10.51
2023-03-21T13:44:21.138Z,10.36
2023-03-21T13:46:56.431Z,10.36
2023-03-21T13:49:32.863Z,10.43
2023-03-21T13:52:04.640Z,10.53
2023-03-21T13:54:51.254Z,10.63
2023-03-21T13:57:41.868Z,10.73
2023-03-21T14:00:24.342Z,10.73
2023-03-21T14:03:00.032Z,10.72
2023-03-21T14:05:29.847Z,10.73
2023-03-21T14:08:12.739Z,10.77
2023-03-21T14:10:46.467Z,10.72
2023-03-21T14:13:21.607Z,10.70
2023-03-21T14:15:56.425Z,10.66
2023-03-21T14:18:28.230Z,10.69
2023-03-21T14:21:07.035Z,10.68
2023-03-21T14:23:40.027Z,10.65
2023-03-21T14:26:12.490Z,10.58
2023-03-21T14:28:49.761Z,10.50
2023-03-21T14:31:20.102Z,10.47
2023-03-21T14:33:54.178Z,10.48
2023-03-21T14:36:26.664Z,10.52
2023-03-21T14:39:05.507Z,10.54
2023-03-21T14:41:35.760Z,10.60
2023-03-21T14:44:16.042Z,10.65
2023-03-21T14:46:45.697Z,10.67
2023-03-21T14:49:20.381Z,10.67
2023-03-21T14:51:49.429Z,10.65
2023-03-21T14:54:18.984Z,10.61
2023-03-21T14:56:52.689Z,10.62
2023-03-21T14:59:27.607Z,10.64
2023-03-21T15:01:56.682Z,10.61
2023-03-21T15:04:27.684Z,10.60
2023-03-21T15:06:59.261Z,10.59
2023-03-21T15:09:31.466Z,10.62
2023-03-21T15:12:00.751Z,10.64
2023-03-21T15:14:34.315Z,10.58
2023-03-21T15:17:07.665Z,10.54
2023-03-21T15:19:39.296Z,10.53
2023-03-21T15:22:14.383Z,10.49
2023-03-21T15:24:48.861Z,10.49
2023-03-21T15:27:20.087Z,10.50
2023-03-21T15:29:54.332Z,10.49
2023-03-21T15:32:25.816Z,10.51
2023-03-21T15:34:56.670Z,10.51
2023-03-21T15:37:28.918Z,10.46
2023-03-21T15:40:17.659Z,10.43
2023-03-21T15:42:46.523Z,10.43
2023-03-21T15:45:23.135Z,10.45
2023-03-21T15:47:54.840Z,10.48
2023-03-21T15:50:29.653Z,10.51
2023-03-21T15:53:01.816Z,10.51
2023-03-21T15:55:35.721Z,10.53
2023-03-21T15:58:08.065Z,10.56
2023-03-21T16:00:42.194Z,10.60
2023-03-21T16:03:18.389Z,10.58
2023-03-21T16:06:04.484Z,10.55
2023-03-21T16:08:36.013Z,10.50
2023-03-21T16:11:09.835Z,10.42
2023-03-21T16:13:38.412Z,10.34
2023-03-21T16:16:12.436Z,10.22
2023-03-21T16:18:41.581Z,10.10
2023-03-21T16:21:13.322Z,9.98
2023-03-21T16:23:43.008Z,9.84
2023-03-21T16:26:14.355Z,9.70
2023-03-21T16:28:43.241Z,9.59
2023-03-21T16:31:17.274Z,9.49
2023-03-21T16:33:46.751Z,9.38
2023-03-21T16:36:18.012Z,9.31
2023-03-21T16:38:47.700Z,9.25
2023-03-21T16:41:17.635Z,9.14
2023-03-21T16:43:46.623Z,9.08
2023-03-21T16:46:18.462Z,9.05
2023-03-21T16:48:49.518Z,8.96
2023-03-21T16:51:20.569Z,8.85
2023-03-21T16:53:50.117Z,8.73
2023-03-21T16:56:21.777Z,8.62
2023-03-21T16:58:50.727Z,8.56
2023-03-21T17:01:26.159Z,8.51
2023-03-21T17:03:55.750Z,8.51
2023-03-21T17:06:25.924Z,8.47
2023-03-21T17:08:55.276Z,8.41
2023-03-21T17:11:27.484Z,8.36
2023-03-21T17:13:56.621Z,8.30
2023-03-21T17:16:27.685Z,8.34
2023-03-21T17:18:56.733Z,8.35
2023-03-21T17:21:27.240Z,8.34
2023-03-21T17:23:56.974Z,8.32
2023-03-21T17:26:28.021Z,8.27
2023-03-21T17:28:57.523Z,8.24
2023-03-21T17:31:29.454Z,8.21
2023-03-21T17:33:58.405Z,8.20
2023-03-21T17:36:31.558Z,8.17
2023-03-21T17:39:00.262Z,8.12
2023-03-21T17:41:29.109Z,8.07
2023-03-21T17:43:57.810Z,7.98
2023-03-21T17:46:30.005Z,7.88
2023-03-21T17:48:58.721Z,7.80
2023-03-21T17:51:30.594Z,7.70
2023-03-21T17:53:58.956Z,7.60
2023-03-21T17:56:30.144Z,7.49
2023-03-21T17:59:01.097Z,7.39
2023-03-21T18:01:31.982Z,7.29
2023-03-21T18:04:03.064Z,7.19
2023-03-21T18:06:32.527Z,7.13
2023-03-21T18:09:07.028Z,7.07
2023-03-21T18:11:35.739Z,7.01
2023-03-21T18:14:15.766Z,6.98
2023-03-21T18:16:47.644Z,6.95
2023-03-21T18:19:16.348Z,6.92
2023-03-21T18:21:46.691Z,6.89
2023-03-21T18:24:16.675Z,6.90
2023-03-21T18:26:46.168Z,6.93
2023-03-21T18:32:09.270Z,6.85
2023-03-21T18:34:39.712Z,6.83
2023-03-21T18:37:09.995Z,6.77
2023-03-21T18:39:39.805Z,6.74
2023-03-21T18:42:16.711Z,6.69
2023-03-21T18:44:48.034Z,6.65
2023-03-21T18:47:18.683Z,6.60
2023-03-21T18:50:13.660Z,6.56
2023-03-21T18:52:36.712Z,6.55
2023-03-21T18:55:06.499Z,6.50
2023-03-21T18:57:38.279Z,6.47
2023-03-21T19:00:13.167Z,6.47
2023-03-21T19:02:47.672Z,6.48
2023-03-21T19:05:18.818Z,6.45
2023-03-21T19:07:48.337Z,6.36
2023-03-21T19:10:19.837Z,6.31
2023-03-21T19:12:50.128Z,6.23
2023-03-21T19:15:21.461Z,6.20
2023-03-21T19:20:44.846Z,6.09
2023-03-21T19:23:14.650Z,6.10
2023-03-21T19:25:44.056Z,6.14
2023-03-21T19:28:12.624Z,6.19
2023-03-21T19:30:49.688Z,6.21
2023-03-21T19:33:21.340Z,6.21
2023-03-21T19:36:08.975Z,6.19
2023-03-21T19:38:39.706Z,6.13
2023-03-21T19:41:08.308Z,6.05
2023-03-21T19:43:36.933Z,6.00
2023-03-21T19:46:05.853Z,5.98
2023-03-21T19:48:38.079Z,5.90
2023-03-21T19:51:36.340Z,5.80
2023-03-21T19:53:55.596Z,5.68
2023-03-21T19:56:27.097Z,5.58
2023-03-21T19:58:56.858Z,5.55
2023-03-21T20:01:26.536Z,5.49
2023-03-21T20:03:58.379Z,5.42
2023-03-21T20:06:27.668Z,5.38
2023-03-21T20:11:45.885Z,5.19
2023-03-21T20:14:14.910Z,5.11
2023-03-21T20:16:43.960Z,5.12
2023-03-21T20:19:16.326Z,5.09
2023-03-21T20:21:52.244Z,5.09
2023-03-21T20:24:23.593Z,5.11
2023-03-21T20:26:53.807Z,5.03
2023-03-21T20:32:11.472Z,4.78
2023-03-21T20:34:44.308Z,4.66
2023-03-21T20:37:13.120Z,4.52
2023-03-21T20:39:42.631Z,4.42
2023-03-21T20:42:11.442Z,4.35
2023-03-21T20:44:59.273Z,4.28
2023-03-21T20:47:29.880Z,4.22
2023-03-21T20:49:59.956Z,4.16
2023-03-21T20:52:54.908Z,4.11
2023-03-21T20:55:18.912Z,4.06
2023-03-21T20:57:49.018Z,4.06
2023-03-21T21:00:18.697Z,4.05
2023-03-21T21:02:50.054Z,4.05
2023-03-21T21:05:27.777Z,3.99
2023-03-21T21:07:57.510Z,3.97
2023-03-21T21:10:26.778Z,3.90
2023-03-21T21:12:55.804Z,3.84
2023-03-21T21:15:24.417Z,3.76
2023-03-21T21:18:05.288Z,3.72
2023-03-21T21:20:36.344Z,3.65
2023-03-21T21:23:06.296Z,3.64
2023-03-21T21:25:35.986Z,3.61
2023-03-21T21:28:09.429Z,3.56
2023-03-21T21:30:41.819Z,3.50
2023-03-21T21:33:10.889Z,3.43
2023-03-21T21:35:47.603Z,3.35
2023-03-21T21:38:17.663Z,3.23
2023-03-21T21:40:46.811Z,3.13
2023-03-21T21:43:17.273Z,3.05
2023-03-21T21:45:46.387Z,2.96
2023-03-21T21:48:15.378Z,2.91
2023-03-21T21:50:47.547Z,2.87
2023-03-21T21:53:19.353Z,2.79
2023-03-21T21:55:48.786Z,2.71
2023-03-21T21:58:19.683Z,2.63
2023-03-21T22:00:50.319Z,2.58
2023-03-21T22:03:22.619Z,2.55
2023-03-21T22:05:54.686Z,2.54
2023-03-21T22:08:23.448Z,2.52
2023-03-21T22:10:52.880Z,2.48
2023-03-21T22:13:21.863Z,2.46
2023-03-21T22:15:51.016Z,2.47
2023-03-21T22:18:19.609Z,2.36
2023-03-21T22:20:48.494Z,2.34
2023-03-21T22:23:19.677Z,2.26
2023-03-21T22:25:51.902Z,2.19
2023-03-21T22:28:22.341Z,2.21
2023-03-21T22:30:51.401Z,2.15
2023-03-21T22:33:22.326Z,2.18
2023-03-21T22:35:51.724Z,2.19
2023-03-21T22:38:24.482Z,2.20
2023-03-21T22:40:56.891Z,2.17
2023-03-21T22:43:26.678Z,2.18
2023-03-21T22:45:57.288Z,2.17
2023-03-21T22:48:26.225Z,2.19
2023-03-21T22:50:55.294Z,2.20
2023-03-21T22:53:25.653Z,2.27
2023-03-21T22:55:54.347Z,2.23
2023-03-21T22:58:23.752Z,2.31
2023-03-21T23:00:52.384Z,2.25
2023-03-21T23:03:21.105Z,2.14
2023-03-21T23:05:49.546Z,2.04
2023-03-21T23:08:18.180Z,1.97
2023-03-21T23:10:47.919Z,1.91
2023-03-21T23:13:17.125Z,1.85
2023-03-21T23:15:45.850Z,1.76
2023-03-21T23:18:15.181Z,1.71
2023-03-21T23:20:43.720Z,1.66
2023-03-21T23:23:14.113Z,1.63
2023-03-21T23:25:43.084Z,1.61
2023-03-21T23:28:13.498Z,1.60
2023-03-21T23:30:42.080Z,1.55
2023-03-21T23:33:10.776Z,1.48
2023-03-21T23:35:39.605Z,1.47
2023-03-21T23:38:08.606Z,1.45
2023-03-21T23:40:40.434Z,1.42
2023-03-21T23:43:08.938Z,1.40
2023-03-21T23:45:38.780Z,1.39
2023-03-21T23:48:07.631Z,1.36
2023-03-21T23:50:36.305Z,1.33
2023-03-21T23:53:04.704Z,1.33
2023-03-21T23:55:33.413Z,1.32
2023-03-21T23:58:01.873Z,1.29
